Augusta, Arkansas
Current Conditions -  °F | °C
As of 1:44 PM on Sunday 23 Nov 2014 (Local Time) from KSRC Reporting Station
Light Rain Light Rain  
Wind Chill: 59°   Ceiling: 600
Heat Index: 59°   Visibility: 6mi
Dew Point: 57°   Wind: 5mph
Humidity: 94%   Direction: 160°SSE
Pressure: 29.39"   Gusts: NA
Location:  35.28°N, 91.37°W
Report Text: KSRC 231944Z AUTO 16004KT 6SM -RA BR OVC006 15/14 A2939 RMK AO2 CIG 004V008 P0003 TSNO
Loading
Personal Weather Stations






























Interactive Weather Map New forecast layout! Learn more

10-Day Weather Forecast

Advertisements
Track Severe Weather on mobile